createdAt,value
2019-01-03T03:31:30.725Z,1.50
2019-01-03T03:34:02.233Z,1.57
2019-01-03T03:36:45.726Z,1.40
2019-01-03T03:39:19.710Z,1.60
2019-01-03T03:41:50.704Z,1.50
2019-01-03T03:44:33.914Z,1.40
2019-01-03T03:47:17.699Z,1.20
2019-01-03T03:49:52.340Z,1.60
2019-01-03T03:52:35.223Z,1.30
2019-01-03T03:55:22.710Z,1.20
2019-01-03T03:57:53.718Z,1.53
2019-01-03T04:00:37.220Z,1.10
2019-01-03T04:03:11.608Z,1.30
2019-01-03T04:05:48.447Z,1.40
2019-01-03T04:08:19.956Z,1.20
2019-01-03T04:10:56.576Z,1.20
2019-01-03T04:13:33.524Z,1.43
2019-01-03T04:16:20.920Z,1.20
2019-01-03T04:18:55.561Z,1.30
2019-01-03T04:21:42.325Z,1.23
2019-01-03T04:24:22.984Z,1.40
2019-01-03T04:26:57.916Z,1.27
2019-01-03T04:29:38.159Z,1.30
2019-01-03T04:32:12.186Z,1.60
2019-01-03T04:34:49.619Z,1.40
2019-01-03T04:37:35.833Z,1.23
2019-01-03T04:40:16.310Z,1.20
2019-01-03T04:42:59.461Z,1.27
2019-01-03T04:45:48.779Z,1.13
2019-01-03T04:48:22.666Z,1.30
2019-01-03T04:51:10.731Z,1.10
2019-01-03T04:53:45.086Z,1.30
2019-01-03T04:56:32.272Z,1.40
2019-01-03T04:59:06.492Z,1.47
2019-01-03T05:02:05.261Z,1.23
2019-01-03T05:04:52.683Z,1.33
2019-01-03T05:07:33.175Z,1.27
2019-01-03T05:10:09.936Z,1.50
2019-01-03T05:12:41.009Z,1.30
2019-01-03T05:15:19.099Z,1.47
2019-01-03T05:18:06.523Z,1.40
2019-01-03T05:20:38.035Z,1.37
2019-01-03T05:23:19.290Z,1.43
2019-01-03T05:25:50.227Z,1.50
2019-01-03T05:28:24.283Z,1.37
2019-01-03T05:31:11.739Z,1.30
2019-01-03T05:33:55.921Z,1.43
2019-01-03T05:36:32.960Z,1.40
2019-01-03T05:39:21.011Z,1.50
2019-01-03T05:41:55.636Z,1.60
2019-01-03T05:44:27.715Z,1.57
2019-01-03T05:47:02.251Z,1.70
2019-01-03T05:49:49.215Z,1.60
2019-01-03T05:52:21.254Z,1.67
2019-01-03T05:55:08.348Z,1.60
2019-01-03T05:57:56.282Z,1.73
2019-01-03T06:00:43.416Z,1.50
2019-01-03T06:03:31.183Z,1.50
2019-01-03T06:06:11.603Z,1.50
2019-01-03T06:08:46.812Z,1.50
2019-01-03T06:11:27.103Z,1.63
2019-01-03T06:14:07.144Z,1.97
2019-01-03T06:16:56.407Z,1.90
2019-01-03T06:19:30.298Z,1.90
2019-01-03T06:22:18.119Z,1.83
2019-01-03T06:24:57.984Z,1.37
2019-01-03T06:27:45.711Z,1.93
2019-01-03T06:30:32.956Z,1.90
2019-01-03T06:33:12.994Z,1.70
2019-01-03T06:35:53.807Z,1.77
2019-01-03T06:38:27.877Z,1.73
2019-01-03T06:41:13.363Z,1.60
2019-01-03T06:43:44.315Z,1.70
2019-01-03T06:46:21.143Z,1.90
2019-01-03T06:49:10.983Z,1.60
2019-01-03T06:51:43.075Z,1.60
2019-01-03T06:54:13.965Z,1.87
2019-01-03T06:56:45.489Z,1.67
2019-01-03T06:59:19.739Z,1.80
2019-01-03T07:02:07.769Z,1.80
2019-01-03T07:04:41.400Z,2.00
2019-01-03T07:07:29.752Z,1.90
2019-01-03T07:10:17.557Z,2.23
2019-01-03T07:12:52.066Z,1.90
2019-01-03T07:15:29.191Z,2.00
2019-01-03T07:18:06.548Z,2.40
2019-01-03T07:20:54.211Z,2.10
2019-01-03T07:23:38.264Z,2.10
2019-01-03T07:26:26.387Z,2.50
2019-01-03T07:28:57.780Z,2.50
2019-01-03T07:31:32.078Z,2.30
2019-01-03T07:34:03.682Z,2.60
2019-01-03T07:36:34.575Z,2.60
2019-01-03T07:39:07.411Z,4.43
2019-01-03T07:41:38.927Z,3.83
2019-01-03T07:44:09.866Z,3.10
2019-01-03T07:46:42.283Z,3.40
2019-01-03T07:49:20.410Z,3.30
2019-01-03T07:52:08.371Z,3.23
2019-01-03T07:54:55.764Z,3.20
2019-01-03T07:57:27.043Z,3.70
2019-01-03T08:00:07.291Z,2.67
2019-01-03T08:02:44.707Z,2.63
2019-01-03T08:05:19.123Z,2.83
2019-01-03T08:07:53.363Z,2.80
2019-01-03T08:10:27.930Z,2.70
2019-01-03T08:13:17.028Z,2.87
2019-01-03T08:15:48.643Z,2.50
2019-01-03T08:18:25.404Z,3.00
2019-01-03T08:20:59.244Z,2.80
2019-01-03T08:23:33.697Z,2.80
2019-01-03T08:26:05.303Z,2.87
2019-01-03T08:28:53.158Z,2.97
2019-01-03T08:31:41.171Z,2.73
2019-01-03T08:34:24.387Z,3.20
2019-01-03T08:37:12.428Z,3.30
2019-01-03T08:39:55.724Z,3.30
2019-01-03T08:42:33.675Z,3.90
2019-01-03T08:45:16.568Z,4.03
2019-01-03T08:48:06.035Z,4.57
2019-01-03T08:50:49.447Z,4.27
2019-01-03T08:53:29.220Z,4.40
2019-01-03T08:56:00.161Z,5.00
2019-01-03T08:58:46.847Z,4.80
2019-01-03T09:01:21.674Z,5.60
2019-01-03T09:04:09.353Z,4.70
2019-01-03T09:06:57.963Z,4.70
2019-01-03T09:09:28.911Z,4.00
2019-01-03T09:12:16.646Z,4.60
2019-01-03T09:14:53.459Z,4.97
2019-01-03T09:17:25.002Z,5.23
2019-01-03T09:19:57.649Z,4.43
2019-01-03T09:22:37.527Z,4.43
2019-01-03T09:25:11.791Z,4.73
2019-01-03T09:27:54.806Z,5.27
2019-01-03T09:30:44.727Z,5.70
2019-01-03T09:33:34.464Z,5.10
2019-01-03T09:36:06.171Z,5.83
2019-01-03T09:38:39.024Z,5.50
2019-01-03T09:41:13.191Z,5.33
2019-01-03T09:43:50.556Z,6.30
2019-01-03T09:46:20.523Z,6.20
2019-01-03T09:48:50.691Z,6.53
2019-01-03T09:51:20.000Z,6.27
2019-01-03T09:53:50.377Z,6.57
2019-01-03T09:56:20.031Z,5.80
2019-01-03T09:58:49.996Z,7.60
2019-01-03T10:01:19.660Z,7.67
2019-01-03T10:03:49.881Z,6.83
2019-01-03T10:06:20.096Z,8.70
2019-01-03T10:08:49.352Z,8.23
2019-01-03T10:11:19.899Z,7.70
2019-01-03T10:13:50.683Z,7.60
2019-01-03T10:16:20.896Z,7.13
2019-01-03T10:18:50.860Z,7.53
2019-01-03T10:21:20.687Z,6.87
2019-01-03T10:23:49.983Z,7.07
2019-01-03T10:26:20.147Z,7.27
2019-01-03T10:28:50.831Z,7.03
2019-01-03T10:31:21.004Z,7.13
2019-01-03T10:33:50.871Z,8.27
2019-01-03T10:36:24.249Z,7.70
2019-01-03T10:38:52.483Z,7.77
2019-01-03T10:41:21.731Z,7.87
2019-01-03T10:43:51.035Z,8.53
2019-01-03T10:46:20.604Z,8.30
2019-01-03T10:48:50.828Z,8.53
2019-01-03T10:51:20.804Z,9.30
2019-01-03T10:53:50.451Z,7.90
2019-01-03T10:56:20.375Z,7.10
2019-01-03T10:58:49.634Z,8.47
2019-01-03T11:01:20.167Z,7.87
2019-01-03T11:03:49.463Z,7.73
2019-01-03T11:06:19.955Z,8.00
2019-01-03T11:08:49.251Z,8.70
2019-01-03T11:11:19.558Z,9.17
2019-01-03T11:13:48.860Z,9.60
2019-01-03T11:16:18.781Z,8.73
2019-01-03T11:18:48.895Z,23.73
2019-01-03T11:21:18.206Z,8.60
2019-01-03T11:23:48.119Z,8.43
2019-01-03T11:26:18.040Z,9.57
2019-01-03T11:28:47.641Z,9.30
2019-01-03T11:31:17.562Z,8.40
2019-01-03T11:33:47.163Z,8.83
2019-01-03T11:36:17.388Z,7.17
2019-01-03T11:38:46.647Z,7.00
2019-01-03T11:41:15.943Z,7.30
2019-01-03T11:43:45.187Z,7.43
2019-01-03T11:46:14.495Z,7.70
2019-01-03T11:48:43.755Z,7.90
2019-01-03T11:51:12.995Z,7.43
2019-01-03T11:53:42.300Z,7.83
2019-01-03T11:56:12.220Z,8.30
2019-01-03T11:58:42.142Z,8.00
2019-01-03T12:01:11.735Z,8.10
2019-01-03T12:03:41.236Z,7.23
2019-01-03T12:06:10.561Z,7.17
2019-01-03T12:08:40.766Z,8.23
2019-01-03T12:11:11.199Z,8.10
2019-01-03T12:13:40.919Z,7.60
2019-01-03T12:16:10.164Z,7.50
2019-01-03T12:18:40.701Z,7.37
2019-01-03T12:21:09.952Z,8.23
2019-01-03T12:23:39.539Z,8.10
2019-01-03T12:26:09.515Z,7.80
2019-01-03T12:28:39.020Z,7.63
2019-01-03T12:31:08.980Z,8.90
2019-01-03T12:33:39.471Z,8.33
2019-01-03T12:36:09.351Z,19.67
2019-01-03T12:38:39.271Z,10.30
2019-01-03T12:41:08.532Z,8.27
2019-01-03T12:43:37.827Z,7.53
2019-01-03T12:46:08.211Z,8.10
2019-01-03T12:48:37.767Z,7.50
2019-01-03T12:51:07.900Z,7.87
2019-01-03T12:53:37.202Z,7.13
2019-01-03T12:56:06.504Z,7.27
2019-01-03T12:58:36.728Z,7.33
2019-01-03T13:01:06.026Z,7.27
2019-01-03T13:03:35.949Z,7.17
2019-01-03T13:06:05.921Z,7.47
2019-01-03T13:08:35.166Z,7.40
2019-01-03T13:11:04.467Z,8.23
2019-01-03T13:13:33.716Z,8.43
2019-01-03T13:16:03.039Z,8.00
2019-01-03T13:18:33.187Z,7.40
2019-01-03T13:21:02.435Z,7.47
2019-01-03T13:23:32.984Z,8.87
2019-01-03T13:26:03.199Z,9.77
2019-01-03T13:28:33.364Z,9.07
2019-01-03T13:31:03.238Z,8.53
2019-01-03T13:33:33.151Z,8.20
2019-01-03T13:36:02.976Z,9.10
2019-01-03T13:38:32.615Z,8.43
2019-01-03T13:41:02.123Z,9.17
2019-01-03T13:43:31.731Z,8.23
2019-01-03T13:46:00.984Z,7.57
2019-01-03T13:48:30.279Z,7.70
2019-01-03T13:50:59.536Z,8.07
2019-01-03T13:53:29.039Z,8.23
2019-01-03T13:55:59.628Z,6.17
2019-01-03T13:58:29.179Z,6.40
2019-01-03T14:00:59.407Z,6.43
2019-01-03T14:03:29.324Z,7.10
2019-01-03T14:05:59.543Z,5.83
2019-01-03T14:08:29.461Z,6.00
2019-01-03T14:10:58.763Z,6.10
2019-01-03T14:13:28.738Z,6.50
2019-01-03T14:15:58.585Z,6.30
2019-01-03T14:18:28.812Z,7.30
2019-01-03T14:20:58.064Z,7.20
2019-01-03T14:23:27.315Z,6.97
2019-01-03T14:25:57.540Z,6.57
2019-01-03T14:28:28.270Z,6.27
2019-01-03T14:30:57.575Z,6.83
2019-01-03T14:33:27.392Z,6.03
2019-01-03T14:35:57.367Z,7.33
2019-01-03T14:38:27.179Z,6.13
2019-01-03T14:40:57.060Z,7.97
2019-01-03T14:43:26.642Z,6.80
2019-01-03T14:45:57.381Z,7.50
2019-01-03T14:48:27.600Z,6.57
2019-01-03T14:50:57.526Z,7.60
2019-01-03T14:53:26.819Z,7.37
2019-01-03T14:55:57.041Z,7.83
2019-01-03T14:58:26.807Z,7.93
2019-01-03T15:00:56.059Z,7.73
2019-01-03T15:03:26.023Z,7.43
2019-01-03T15:05:55.323Z,9.07
2019-01-03T15:08:24.883Z,8.83
2019-01-03T15:10:54.386Z,7.97
2019-01-03T15:13:24.612Z,8.73
2019-01-03T15:15:54.832Z,8.00
2019-01-03T15:18:24.240Z,10.80
2019-01-03T15:20:54.711Z,8.53
2019-01-03T15:23:24.275Z,8.43
2019-01-03T15:25:53.779Z,8.03
2019-01-03T15:28:23.655Z,11.33
2019-01-03T15:30:54.104Z,12.23
2019-01-03T15:33:24.030Z,12.33
2019-01-03T15:35:53.907Z,14.03
2019-01-03T15:38:23.738Z,10.80
2019-01-03T15:40:52.987Z,11.37
2019-01-03T15:43:23.363Z,13.23
2019-01-03T15:45:52.615Z,12.00
2019-01-03T15:48:22.443Z,11.93
2019-01-03T15:50:53.395Z,12.57
2019-01-03T15:53:22.651Z,12.87
2019-01-03T15:55:51.903Z,11.57
2019-01-03T15:58:22.446Z,11.97
2019-01-03T16:00:51.700Z,15.63
2019-01-03T16:03:21.291Z,15.07
2019-01-03T16:05:51.617Z,15.63
2019-01-03T16:08:20.925Z,13.03
2019-01-03T16:10:50.180Z,12.80
2019-01-03T16:13:20.059Z,12.90
2019-01-03T16:15:49.683Z,11.57
2019-01-03T16:18:18.931Z,12.63
2019-01-03T16:20:49.376Z,12.87
2019-01-03T16:23:20.167Z,12.70
2019-01-03T16:25:50.043Z,13.57
2019-01-03T16:28:19.305Z,14.20
2019-01-03T16:30:49.839Z,13.77
2019-01-03T16:33:19.763Z,13.67
2019-01-03T16:35:49.748Z,12.97
2019-01-03T16:38:18.991Z,13.97
2019-01-03T16:40:48.702Z,13.07
2019-01-03T16:43:18.671Z,15.67
2019-01-03T16:45:48.499Z,15.97
2019-01-03T16:48:18.476Z,14.03
2019-01-03T16:50:49.023Z,14.37
2019-01-03T16:53:18.840Z,14.43
2019-01-03T16:55:48.147Z,13.50
2019-01-03T16:58:17.820Z,13.13
2019-01-03T17:00:48.316Z,13.20
2019-01-03T17:03:18.191Z,13.33
2019-01-03T17:05:47.756Z,15.20
2019-01-03T17:08:17.576Z,14.97
2019-01-03T17:10:46.884Z,14.90
2019-01-03T17:13:16.139Z,14.57
2019-01-03T17:15:46.230Z,16.30
2019-01-03T17:18:15.435Z,15.17
2019-01-03T17:20:44.696Z,15.70
2019-01-03T17:23:14.676Z,15.67
2019-01-03T17:25:44.500Z,14.80
2019-01-03T17:28:14.235Z,15.43
2019-01-03T17:30:44.623Z,14.83
2019-01-03T17:33:13.932Z,14.43
2019-01-03T17:35:43.236Z,15.73
2019-01-03T17:38:12.492Z,12.77
2019-01-03T17:40:42.688Z,14.93
2019-01-03T17:43:12.296Z,12.70
2019-01-03T17:45:41.904Z,13.47
2019-01-03T17:48:11.731Z,12.60
2019-01-03T17:50:42.043Z,14.20
2019-01-03T17:53:11.323Z,14.80
2019-01-03T17:55:40.956Z,15.43
2019-01-03T17:58:10.928Z,15.07
2019-01-03T18:00:40.786Z,15.07
2019-01-03T18:03:10.679Z,14.70
2019-01-03T18:05:40.547Z,14.50
2019-01-03T18:08:10.419Z,14.57
2019-01-03T18:10:40.655Z,14.60
2019-01-03T18:13:10.876Z,14.80
2019-01-03T18:15:40.179Z,15.50
2019-01-03T18:18:09.787Z,16.43
2019-01-03T18:20:39.611Z,16.23
2019-01-03T18:23:09.209Z,16.70
2019-01-03T18:25:39.280Z,17.97
2019-01-03T18:28:09.451Z,14.83
2019-01-03T18:30:39.277Z,16.33
2019-01-03T18:33:09.252Z,15.53
2019-01-03T18:35:39.404Z,17.73
2019-01-03T18:38:09.895Z,18.53
2019-01-03T18:40:39.198Z,19.50
2019-01-03T18:43:08.507Z,19.83
2019-01-03T18:45:37.759Z,19.27
2019-01-03T18:48:07.019Z,18.07
2019-01-03T18:50:36.904Z,17.90
2019-01-03T18:53:06.723Z,19.27
2019-01-03T18:55:37.268Z,19.03
2019-01-03T18:58:07.487Z,19.43
2019-01-03T19:00:38.051Z,18.40
2019-01-03T19:03:07.936Z,19.07
2019-01-03T19:05:37.191Z,18.60
2019-01-03T19:08:06.495Z,18.23
2019-01-03T19:10:37.041Z,16.13
2019-01-03T19:13:06.619Z,15.27
2019-01-03T19:15:35.911Z,15.10
2019-01-03T19:18:05.170Z,17.27
2019-01-03T19:20:35.043Z,22.40
2019-01-03T19:23:04.869Z,16.60
2019-01-03T19:25:34.743Z,18.70
2019-01-03T19:28:05.076Z,17.80
2019-01-03T19:30:35.472Z,16.70
2019-01-03T19:33:04.775Z,15.50
2019-01-03T19:35:34.079Z,13.87
2019-01-03T19:38:03.907Z,14.40
2019-01-03T19:40:33.213Z,15.70
2019-01-03T19:43:02.731Z,18.47
2019-01-03T19:45:32.563Z,14.73
2019-01-03T19:48:02.867Z,14.33
2019-01-03T19:50:32.122Z,16.17
2019-01-03T19:53:01.431Z,20.73
2019-01-03T19:55:30.979Z,27.57
2019-01-03T19:58:00.856Z,23.43
2019-01-03T20:00:30.404Z,19.60
2019-01-03T20:03:00.007Z,18.63
2019-01-03T20:05:30.335Z,16.70
2019-01-03T20:07:59.592Z,16.93
2019-01-03T20:10:29.479Z,17.63
2019-01-03T20:12:59.571Z,16.80
2019-01-03T20:15:29.180Z,17.83
2019-01-03T20:17:58.483Z,15.47
2019-01-03T20:20:28.092Z,16.10
2019-01-03T20:22:58.415Z,15.50
2019-01-03T20:25:28.391Z,15.80
2019-01-03T20:27:58.267Z,16.20
2019-01-03T20:30:28.369Z,15.37
2019-01-03T20:32:57.676Z,14.57
2019-01-03T20:35:27.403Z,13.97
2019-01-03T20:37:56.656Z,14.73
2019-01-03T20:40:25.964Z,14.90
2019-01-03T20:42:55.883Z,15.53
2019-01-03T20:45:25.759Z,16.30
2019-01-03T20:47:55.019Z,16.50
2019-01-03T20:50:24.279Z,17.00
2019-01-03T20:52:53.923Z,16.53
2019-01-03T20:55:23.227Z,16.40
2019-01-03T20:57:53.449Z,16.63
2019-01-03T21:00:23.599Z,16.83
2019-01-03T21:02:52.860Z,15.00
2019-01-03T21:05:22.108Z,16.07
2019-01-03T21:07:51.419Z,15.73
2019-01-03T21:10:21.281Z,16.83
2019-01-03T21:12:50.795Z,17.00
2019-01-03T21:15:20.776Z,15.70
2019-01-03T21:17:50.079Z,16.03
2019-01-03T21:20:19.336Z,15.60
2019-01-03T21:22:50.583Z,15.07
2019-01-03T21:25:20.171Z,16.00
2019-01-03T21:27:49.428Z,15.13
2019-01-03T21:30:18.909Z,14.97
2019-01-03T21:32:50.467Z,14.83
2019-01-03T21:35:20.810Z,16.00
2019-01-03T21:37:50.068Z,14.07
2019-01-03T21:40:19.323Z,15.20
2019-01-03T21:42:48.968Z,14.43
2019-01-03T21:45:18.276Z,14.80
2019-01-03T21:47:48.067Z,15.03
2019-01-03T21:50:17.695Z,13.60
2019-01-03T21:52:47.299Z,14.37
2019-01-03T21:55:18.097Z,15.27
2019-01-03T21:57:48.987Z,14.47
2019-01-03T22:00:18.972Z,15.10
2019-01-03T22:02:49.363Z,14.13
2019-01-03T22:05:18.928Z,15.13
2019-01-03T22:07:49.672Z,14.83
2019-01-03T22:10:18.981Z,15.07
2019-01-03T22:12:49.466Z,14.83
2019-01-03T22:15:19.444Z,13.67
2019-01-03T22:17:49.527Z,14.00
2019-01-03T22:20:18.839Z,13.57
2019-01-03T22:22:48.952Z,12.90
2019-01-03T22:25:18.927Z,13.33
2019-01-03T22:27:48.752Z,13.57
2019-01-03T22:30:18.292Z,13.30
2019-01-03T22:32:48.444Z,14.47
2019-01-03T22:35:18.989Z,14.43
2019-01-03T22:37:48.242Z,14.97
2019-01-03T22:40:18.570Z,15.70
2019-01-03T22:42:49.212Z,16.43
2019-01-03T22:45:19.215Z,15.13
2019-01-03T22:47:49.341Z,16.10
2019-01-03T22:50:19.668Z,15.77
2019-01-03T22:52:49.647Z,15.83
2019-01-03T22:55:18.898Z,15.53
2019-01-03T22:57:48.800Z,16.80
2019-01-03T23:00:35.514Z,16.20
2019-01-03T23:03:05.919Z,14.37
2019-01-03T23:05:35.443Z,14.83
2019-01-03T23:08:05.367Z,13.90
2019-01-03T23:10:35.340Z,13.73
2019-01-03T23:13:05.163Z,13.40
